createdAt,value
2019-03-20T00:00:28.699Z,15.10
2019-03-20T00:01:28.681Z,17.40
2019-03-20T00:02:28.609Z,15.50
2019-03-20T00:03:28.563Z,15.30
2019-03-20T00:04:28.519Z,16.90
2019-03-20T00:05:28.471Z,17.80
2019-03-20T00:06:28.421Z,19.40
2019-03-20T00:07:28.399Z,19.00
2019-03-20T00:08:28.333Z,16.90
2019-03-20T00:09:28.284Z,19.10
2019-03-20T00:10:28.267Z,15.60
2019-03-20T00:11:28.196Z,17.70
2019-03-20T00:12:28.147Z,13.60
2019-03-20T00:13:28.109Z,18.90
2019-03-20T00:14:28.056Z,16.10
2019-03-20T00:15:28.037Z,14.80
2019-03-20T00:16:27.963Z,14.70
2019-03-20T00:17:27.922Z,16.60
2019-03-20T00:18:27.898Z,17.00
2019-03-20T00:19:36.946Z,16.80
2019-03-20T00:20:27.815Z,15.50
2019-03-20T00:21:27.741Z,17.10
2019-03-20T00:22:27.689Z,14.00
2019-03-20T00:23:27.645Z,14.00
2019-03-20T00:24:27.600Z,14.90
2019-03-20T00:25:27.595Z,14.80
2019-03-20T00:26:27.513Z,15.50
2019-03-20T00:27:27.465Z,15.80
2019-03-20T00:28:27.417Z,12.60
2019-03-20T00:29:27.401Z,14.40
2019-03-20T00:30:27.327Z,14.00
2019-03-20T00:31:27.285Z,15.70
2019-03-20T00:32:27.250Z,19.10
2019-03-20T00:33:27.210Z,15.50
2019-03-20T00:34:27.146Z,13.00
2019-03-20T00:35:27.126Z,14.70
2019-03-20T00:36:27.054Z,12.30
2019-03-20T00:37:27.024Z,15.20
2019-03-20T00:38:26.965Z,14.30
2019-03-20T00:39:26.949Z,17.20
2019-03-20T00:40:26.880Z,16.90
2019-03-20T00:41:26.830Z,13.50
2019-03-20T00:42:26.790Z,16.80
2019-03-20T00:43:26.734Z,14.70
2019-03-20T00:44:26.718Z,17.40
2019-03-20T00:45:26.642Z,12.60
2019-03-20T00:46:26.612Z,15.10
2019-03-20T00:47:26.556Z,15.30
2019-03-20T00:48:26.526Z,13.20
2019-03-20T00:49:26.495Z,14.80
2019-03-20T00:50:26.439Z,15.80
2019-03-20T00:51:26.380Z,14.90
2019-03-20T00:52:26.343Z,16.10
2019-03-20T00:53:26.297Z,13.70
2019-03-20T00:54:26.271Z,15.50
2019-03-20T00:55:26.193Z,14.00
2019-03-20T00:56:26.150Z,15.00
2019-03-20T00:57:26.134Z,13.90
2019-03-20T00:58:26.066Z,16.10
2019-03-20T00:59:26.028Z,14.10
2019-03-20T01:00:25.975Z,15.90
2019-03-20T01:01:25.944Z,12.90
2019-03-20T01:02:25.887Z,13.60
2019-03-20T01:03:25.846Z,13.80
2019-03-20T01:04:25.817Z,14.90
2019-03-20T01:05:25.738Z,13.60
2019-03-20T01:06:25.717Z,11.80
2019-03-20T01:07:25.674Z,14.50
2019-03-20T01:08:25.643Z,17.10
2019-03-20T01:09:25.593Z,16.90
2019-03-20T01:10:25.526Z,14.40
2019-03-20T01:11:25.476Z,15.70
2019-03-20T01:12:25.441Z,15.60
2019-03-20T01:13:25.418Z,15.30
2019-03-20T01:14:25.351Z,14.60
2019-03-20T01:15:25.299Z,13.90
2019-03-20T01:16:25.253Z,15.20
2019-03-20T01:17:25.201Z,14.50
2019-03-20T01:18:25.177Z,17.20
2019-03-20T01:19:25.114Z,15.60
2019-03-20T01:20:25.072Z,13.50
2019-03-20T01:21:25.025Z,15.00
2019-03-20T01:22:24.975Z,16.40
2019-03-20T01:23:24.965Z,15.80
2019-03-20T01:24:24.878Z,18.20
2019-03-20T01:25:24.842Z,16.40
2019-03-20T01:26:24.810Z,15.20
2019-03-20T01:27:24.757Z,14.50
2019-03-20T01:28:24.714Z,14.60
2019-03-20T01:29:24.693Z,14.90
2019-03-20T01:30:24.623Z,15.10
2019-03-20T01:31:24.571Z,13.20
2019-03-20T01:32:24.525Z,15.50
2019-03-20T01:33:24.493Z,15.00
2019-03-20T01:34:24.451Z,12.70
2019-03-20T01:35:24.409Z,16.10
2019-03-20T01:36:24.345Z,15.40
2019-03-20T01:37:24.299Z,16.40
2019-03-20T01:38:24.275Z,13.60
2019-03-20T01:39:24.234Z,12.00
2019-03-20T01:40:24.159Z,13.40
2019-03-20T01:41:24.120Z,13.90
2019-03-20T01:42:24.074Z,14.20
2019-03-20T01:43:24.025Z,14.10
2019-03-20T01:44:23.978Z,13.30
2019-03-20T01:45:23.968Z,15.20
2019-03-20T01:46:23.917Z,17.20
2019-03-20T01:47:23.842Z,14.50
2019-03-20T01:48:23.815Z,12.80
2019-03-20T01:49:23.747Z,12.70
2019-03-20T01:50:23.737Z,13.90
2019-03-20T01:51:23.658Z,14.00
2019-03-20T01:52:23.620Z,13.40
2019-03-20T01:53:23.568Z,14.00
2019-03-20T01:54:23.532Z,13.30
2019-03-20T01:55:23.483Z,15.40
2019-03-20T01:56:23.470Z,15.20
2019-03-20T01:57:23.398Z,14.40
2019-03-20T01:58:23.386Z,13.80
2019-03-20T01:59:23.304Z,13.70
2019-03-20T02:00:23.277Z,15.10
2019-03-20T02:01:23.268Z,15.40
2019-03-20T02:02:23.186Z,15.70
2019-03-20T02:03:23.117Z,13.70
2019-03-20T02:04:23.069Z,14.40
2019-03-20T02:05:23.031Z,15.20
2019-03-20T02:06:22.990Z,13.60
2019-03-20T02:07:22.981Z,14.00
2019-03-20T02:08:22.918Z,13.90
2019-03-20T02:09:22.849Z,13.50
2019-03-20T02:10:22.807Z,15.40
2019-03-20T02:11:22.792Z,13.00
2019-03-20T02:12:22.743Z,14.10
2019-03-20T02:13:22.668Z,12.40
2019-03-20T02:14:22.608Z,13.70
2019-03-20T02:15:22.567Z,13.60
2019-03-20T02:16:22.517Z,14.60
2019-03-20T02:17:22.505Z,14.30
2019-03-20T02:18:22.435Z,13.70
2019-03-20T02:19:22.404Z,15.10
2019-03-20T02:20:22.345Z,12.90
2019-03-20T02:21:22.304Z,12.70
2019-03-20T02:22:22.280Z,14.30
2019-03-20T02:23:22.204Z,13.70
2019-03-20T02:24:22.163Z,13.30
2019-03-20T02:25:22.134Z,13.10
2019-03-20T02:26:22.069Z,12.80
2019-03-20T02:27:22.058Z,14.40
2019-03-20T02:28:21.984Z,16.40
2019-03-20T02:29:21.939Z,14.30
2019-03-20T02:30:21.895Z,15.30
2019-03-20T02:31:21.862Z,14.50
2019-03-20T02:32:21.824Z,14.90
2019-03-20T02:33:21.805Z,13.80
2019-03-20T02:34:21.722Z,11.40
2019-03-20T02:35:21.680Z,15.20
2019-03-20T02:36:21.646Z,14.10
2019-03-20T02:37:21.598Z,14.00
2019-03-20T02:38:21.561Z,13.30
2019-03-20T02:39:21.495Z,15.00
2019-03-20T02:40:21.465Z,15.10
2019-03-20T02:41:21.385Z,16.40
2019-03-20T02:42:21.360Z,13.00
2019-03-20T02:43:21.331Z,15.00
2019-03-20T02:44:21.260Z,14.80
2019-03-20T02:45:21.202Z,14.20
2019-03-20T02:46:21.164Z,14.80
2019-03-20T02:47:21.110Z,15.70
2019-03-20T02:48:21.097Z,13.90
2019-03-20T02:49:21.025Z,14.30
2019-03-20T02:50:20.989Z,14.90
2019-03-20T02:51:20.933Z,14.30
2019-03-20T02:52:20.893Z,13.70
2019-03-20T02:53:20.874Z,12.50
2019-03-20T02:54:20.801Z,13.30
2019-03-20T02:55:20.759Z,16.30
2019-03-20T02:56:20.703Z,14.10
2019-03-20T02:57:20.665Z,15.00
2019-03-20T02:58:20.648Z,12.60
2019-03-20T02:59:20.576Z,12.70
2019-03-20T03:00:20.524Z,13.10
2019-03-20T03:01:20.479Z,13.90
2019-03-20T03:02:20.440Z,12.60
2019-03-20T03:03:20.418Z,13.50
2019-03-20T03:04:20.350Z,13.40
2019-03-20T03:05:20.288Z,13.10
2019-03-20T03:06:20.251Z,14.90
2019-03-20T03:07:20.197Z,11.40
2019-03-20T03:08:20.153Z,13.10
2019-03-20T03:09:20.145Z,12.20
2019-03-20T03:10:20.097Z,12.80
2019-03-20T03:11:20.024Z,14.40
2019-03-20T03:12:19.983Z,12.20
2019-03-20T03:13:19.972Z,14.40
2019-03-20T03:14:19.913Z,11.30
2019-03-20T03:15:19.855Z,12.60
2019-03-20T03:16:19.799Z,12.40
2019-03-20T03:17:19.771Z,13.90
2019-03-20T03:18:19.706Z,14.30
2019-03-20T03:19:19.677Z,13.30
2019-03-20T03:20:19.618Z,13.30
2019-03-20T03:21:19.573Z,11.40
2019-03-20T03:22:19.528Z,13.70
2019-03-20T03:23:19.483Z,13.30
2019-03-20T03:24:19.457Z,12.70
2019-03-20T03:25:19.387Z,12.40
2019-03-20T03:26:19.361Z,15.40
2019-03-20T03:27:19.298Z,12.20
2019-03-20T03:28:19.258Z,12.70
2019-03-20T03:29:19.206Z,11.30
2019-03-20T03:30:19.241Z,14.10
2019-03-20T03:31:19.105Z,13.20
2019-03-20T03:32:19.137Z,11.80
2019-03-20T03:33:19.087Z,13.40
2019-03-20T03:34:19.048Z,12.80
2019-03-20T03:35:19.969Z,13.60
2019-03-20T03:36:21.609Z,13.00
2019-03-20T03:37:18.844Z,12.40
2019-03-20T03:38:18.815Z,13.00
2019-03-20T03:39:18.741Z,13.30
2019-03-20T03:40:18.704Z,14.30
2019-03-20T03:41:18.685Z,14.30
2019-03-20T03:42:18.612Z,15.80
2019-03-20T03:43:18.575Z,12.10
2019-03-20T03:44:18.527Z,12.10
2019-03-20T03:45:18.510Z,14.10
2019-03-20T03:46:18.431Z,13.50
2019-03-20T03:47:18.391Z,13.50
2019-03-20T03:48:18.349Z,12.80
2019-03-20T03:49:18.300Z,15.60
2019-03-20T03:50:18.256Z,12.10
2019-03-20T03:51:18.220Z,14.00
2019-03-20T03:52:18.156Z,12.20
2019-03-20T03:53:18.124Z,12.40
2019-03-20T03:54:18.065Z,15.10
2019-03-20T03:55:18.049Z,13.40
2019-03-20T03:56:18.014Z,12.80
2019-03-20T03:57:17.937Z,14.10
2019-03-20T03:58:17.873Z,13.80
2019-03-20T03:59:17.837Z,11.80
2019-03-20T04:00:17.808Z,14.00
2019-03-20T04:01:17.771Z,13.20
2019-03-20T04:02:17.823Z,12.60
2019-03-20T04:03:17.658Z,14.50
2019-03-20T04:04:17.608Z,13.30
2019-03-20T04:05:17.624Z,11.20
2019-03-20T04:06:17.535Z,13.70
2019-03-20T04:07:17.517Z,13.60
2019-03-20T04:08:17.469Z,13.30
2019-03-20T04:09:17.393Z,12.90
2019-03-20T04:10:17.361Z,14.90
2019-03-20T04:11:17.287Z,11.40
2019-03-20T04:12:17.241Z,13.60
2019-03-20T04:13:17.233Z,12.20
2019-03-20T04:14:17.162Z,13.50
2019-03-20T04:15:17.132Z,15.10
2019-03-20T04:16:17.063Z,14.00
2019-03-20T04:17:17.024Z,15.10
2019-03-20T04:18:16.997Z,14.60
2019-03-20T04:19:16.984Z,12.80
2019-03-20T04:20:16.940Z,12.20
2019-03-20T04:21:16.837Z,12.10
2019-03-20T04:22:16.814Z,11.70
2019-03-20T04:23:16.738Z,14.60
2019-03-20T04:24:16.691Z,12.00
2019-03-20T04:25:16.686Z,10.80
2019-03-20T04:26:16.617Z,12.00
2019-03-20T04:27:16.558Z,11.30
2019-03-20T04:28:16.515Z,12.10
2019-03-20T04:29:16.520Z,14.30
2019-03-20T04:30:16.459Z,12.40
2019-03-20T04:31:16.377Z,11.90
2019-03-20T04:32:16.331Z,13.00
2019-03-20T04:33:16.286Z,13.50
2019-03-20T04:34:16.263Z,11.90
2019-03-20T04:35:16.190Z,13.10
2019-03-20T04:36:16.142Z,13.40
2019-03-20T04:37:16.102Z,12.60
2019-03-20T04:38:16.060Z,13.50
2019-03-20T04:39:16.037Z,13.40
2019-03-20T04:40:15.970Z,13.50
2019-03-20T04:41:15.909Z,13.50
2019-03-20T04:42:15.869Z,14.70
2019-03-20T04:43:15.834Z,12.50
2019-03-20T04:44:15.821Z,12.20
2019-03-20T04:45:15.747Z,14.20
2019-03-20T04:46:15.696Z,14.10
2019-03-20T04:47:15.649Z,13.20
2019-03-20T04:48:15.596Z,13.80
2019-03-20T04:49:15.589Z,12.80
2019-03-20T04:50:15.497Z,12.90
2019-03-20T04:51:15.466Z,13.00
2019-03-20T04:52:15.416Z,12.20
2019-03-20T04:53:15.368Z,15.30
2019-03-20T04:54:15.331Z,12.10
2019-03-20T04:55:15.295Z,12.10
2019-03-20T04:56:15.225Z,12.80
2019-03-20T04:57:15.200Z,13.20
2019-03-20T04:58:15.154Z,12.20
2019-03-20T04:59:15.096Z,12.90
2019-03-20T05:00:15.093Z,12.30
2019-03-20T05:01:15.000Z,13.40
2019-03-20T05:02:14.971Z,12.70
2019-03-20T05:03:14.909Z,11.80
2019-03-20T05:04:14.872Z,12.00
2019-03-20T05:05:14.817Z,12.10
2019-03-20T05:06:14.807Z,13.80
2019-03-20T05:07:14.739Z,12.20
2019-03-20T05:08:14.694Z,12.60
2019-03-20T05:09:14.646Z,11.80
2019-03-20T05:10:14.597Z,11.70
2019-03-20T05:11:14.582Z,13.30
2019-03-20T05:12:14.507Z,11.60
2019-03-20T05:13:14.446Z,13.70
2019-03-20T05:14:14.408Z,13.90
2019-03-20T05:15:14.374Z,11.80
2019-03-20T05:16:14.348Z,13.90
2019-03-20T05:17:14.283Z,12.70
2019-03-20T05:18:14.224Z,13.00
2019-03-20T05:19:14.182Z,15.40
2019-03-20T05:20:14.134Z,13.00
2019-03-20T05:21:14.099Z,14.30
2019-03-20T05:22:14.061Z,11.90
2019-03-20T05:23:14.005Z,14.10
2019-03-20T05:24:13.962Z,12.70
2019-03-20T05:25:13.912Z,16.50
2019-03-20T05:26:13.861Z,11.30
2019-03-20T05:27:13.832Z,14.50
2019-03-20T05:28:13.754Z,14.20
2019-03-20T05:29:13.724Z,12.60
2019-03-20T05:30:13.672Z,15.80
2019-03-20T05:31:13.691Z,13.30
2019-03-20T05:32:13.623Z,12.30
2019-03-20T05:33:13.531Z,13.70
2019-03-20T05:34:13.488Z,13.50
2019-03-20T05:35:13.436Z,14.80
2019-03-20T05:36:13.391Z,13.00
2019-03-20T05:37:13.362Z,14.20
2019-03-20T05:38:13.332Z,15.30
2019-03-20T05:39:15.703Z,14.60
2019-03-20T05:40:13.211Z,12.80
2019-03-20T05:41:13.171Z,11.80
2019-03-20T05:42:13.134Z,13.30
2019-03-20T05:43:13.107Z,15.80
2019-03-20T05:44:13.034Z,11.20
2019-03-20T05:45:12.985Z,14.30
2019-03-20T05:46:12.940Z,14.10
2019-03-20T05:47:12.890Z,15.10
2019-03-20T05:48:12.874Z,13.10
2019-03-20T05:49:12.808Z,14.50
2019-03-20T05:50:12.764Z,14.40
2019-03-20T05:51:12.720Z,13.70
2019-03-20T05:52:12.676Z,12.50
2019-03-20T05:53:12.632Z,14.20
2019-03-20T05:54:12.603Z,13.70
2019-03-20T05:55:12.550Z,14.30
2019-03-20T05:56:12.488Z,12.20
2019-03-20T05:57:12.768Z,13.80
2019-03-20T05:58:12.394Z,13.00
2019-03-20T05:59:12.375Z,13.10
2019-03-20T06:00:12.302Z,15.00
2019-03-20T06:01:12.297Z,13.80
2019-03-20T06:02:12.224Z,13.70
2019-03-20T06:03:12.165Z,12.50
2019-03-20T06:04:12.155Z,12.10
2019-03-20T06:05:12.077Z,13.40
2019-03-20T06:06:12.074Z,13.30
2019-03-20T06:07:21.001Z,13.70
2019-03-20T06:08:11.937Z,12.50
2019-03-20T06:09:11.905Z,12.10
2019-03-20T06:10:11.854Z,14.60
2019-03-20T06:11:11.803Z,13.10
2019-03-20T06:12:11.783Z,13.70
2019-03-20T06:13:11.731Z,13.20
2019-03-20T06:14:11.686Z,12.60
2019-03-20T06:15:11.630Z,12.00
2019-03-20T06:16:11.611Z,14.10
2019-03-20T06:17:11.560Z,13.10
2019-03-20T06:18:11.501Z,13.20
2019-03-20T06:19:20.508Z,14.10
2019-03-20T06:20:11.403Z,13.60
2019-03-20T06:21:11.359Z,15.00
2019-03-20T06:22:11.339Z,16.50
2019-03-20T06:23:11.364Z,13.30
2019-03-20T06:24:11.212Z,12.90
2019-03-20T06:25:11.174Z,12.00
2019-03-20T06:26:11.123Z,14.30
2019-03-20T06:27:11.095Z,13.70
2019-03-20T06:28:11.029Z,13.40
2019-03-20T06:29:10.986Z,13.10
2019-03-20T06:30:10.941Z,12.10
2019-03-20T06:31:10.899Z,12.20
2019-03-20T06:32:10.875Z,14.60
2019-03-20T06:33:10.819Z,13.10
2019-03-20T06:34:10.771Z,13.70
2019-03-20T06:35:10.714Z,14.00
2019-03-20T06:36:10.692Z,14.70
2019-03-20T06:37:10.655Z,13.20
2019-03-20T06:38:10.583Z,15.30
2019-03-20T06:39:10.545Z,12.40
2019-03-20T06:40:10.496Z,13.00
2019-03-20T06:41:10.447Z,15.50
2019-03-20T06:42:10.425Z,14.60
2019-03-20T06:43:10.395Z,11.40
2019-03-20T06:44:10.322Z,15.40
2019-03-20T06:45:10.300Z,12.10
2019-03-20T06:46:10.233Z,12.20
2019-03-20T06:47:10.180Z,13.00
2019-03-20T06:48:10.133Z,14.40
2019-03-20T06:49:10.097Z,13.90
2019-03-20T06:50:10.077Z,14.30
2019-03-20T06:51:10.008Z,12.10
2019-03-20T06:52:09.982Z,13.80
2019-03-20T06:53:09.919Z,11.90
2019-03-20T06:54:09.874Z,14.00
2019-03-20T06:55:09.818Z,12.70
2019-03-20T06:56:09.804Z,13.60
2019-03-20T06:57:09.740Z,13.50
2019-03-20T06:58:09.694Z,13.50
2019-03-20T06:59:09.644Z,13.20
2019-03-20T07:00:09.609Z,14.20
2019-03-20T07:01:09.550Z,14.30
2019-03-20T07:02:09.533Z,12.20
2019-03-20T07:03:09.468Z,12.80
2019-03-20T07:04:09.427Z,15.40
2019-03-20T07:05:09.400Z,11.90
2019-03-20T07:06:09.345Z,12.20
2019-03-20T07:07:09.315Z,15.40
2019-03-20T07:08:09.244Z,15.20
2019-03-20T07:09:09.203Z,13.40
2019-03-20T07:10:09.154Z,12.70
2019-03-20T07:11:09.121Z,12.20
2019-03-20T07:12:09.074Z,16.00
2019-03-20T07:13:09.043Z,12.90
2019-03-20T07:14:08.982Z,13.20
2019-03-20T07:15:08.935Z,14.50
2019-03-20T07:16:08.893Z,13.60
2019-03-20T07:17:08.897Z,13.90
2019-03-20T07:18:08.814Z,11.80
2019-03-20T07:19:08.756Z,11.30
2019-03-20T07:20:08.721Z,11.90
2019-03-20T07:21:08.674Z,14.30
2019-03-20T07:22:08.647Z,11.50
2019-03-20T07:23:08.605Z,12.20
2019-03-20T07:24:08.542Z,11.50
2019-03-20T07:25:08.503Z,12.30
2019-03-20T07:26:08.455Z,12.30
2019-03-20T07:27:08.405Z,12.60
2019-03-20T07:28:08.386Z,11.70
2019-03-20T07:29:08.328Z,11.70
2019-03-20T07:30:08.281Z,13.60
2019-03-20T07:31:15.382Z,13.50
2019-03-20T07:32:08.216Z,13.20
2019-03-20T07:33:08.187Z,11.00
2019-03-20T07:34:08.098Z,12.30
2019-03-20T07:35:08.067Z,13.90
2019-03-20T07:36:08.019Z,12.40
2019-03-20T07:37:08.006Z,11.40
2019-03-20T07:38:07.938Z,11.10
2019-03-20T07:39:07.931Z,12.30
2019-03-20T07:40:08.436Z,12.50
2019-03-20T07:41:07.801Z,11.70
2019-03-20T07:42:07.761Z,14.00
2019-03-20T07:43:09.235Z,12.60
2019-03-20T07:44:07.714Z,12.20
2019-03-20T07:45:07.831Z,13.10
2019-03-20T07:46:07.579Z,12.60
2019-03-20T07:47:07.544Z,11.70
2019-03-20T07:48:07.502Z,13.00
2019-03-20T07:49:07.478Z,14.40
2019-03-20T07:50:07.411Z,13.40
2019-03-20T07:51:07.361Z,14.80
2019-03-20T07:52:07.349Z,12.00
2019-03-20T07:53:07.275Z,12.30
2019-03-20T07:54:07.230Z,12.30
2019-03-20T07:55:07.197Z,13.10
2019-03-20T07:56:07.153Z,13.20
2019-03-20T07:57:07.138Z,12.40
2019-03-20T07:58:07.104Z,12.30
2019-03-20T07:59:07.014Z,12.20
2019-03-20T08:00:07.028Z,12.30
2019-03-20T08:01:06.939Z,13.20
2019-03-20T08:02:06.894Z,12.40
2019-03-20T08:03:06.841Z,11.10
2019-03-20T08:04:06.794Z,12.00
2019-03-20T08:05:06.782Z,12.30
2019-03-20T08:06:06.720Z,13.10
2019-03-20T08:07:06.673Z,13.90
2019-03-20T08:08:07.774Z,13.80
2019-03-20T08:09:06.597Z,13.30
2019-03-20T08:10:06.573Z,13.00
2019-03-20T08:11:06.514Z,12.00
2019-03-20T08:12:06.451Z,11.90
2019-03-20T08:13:06.415Z,13.30
2019-03-20T08:14:06.371Z,14.40
2019-03-20T08:15:06.333Z,14.30
2019-03-20T08:16:06.317Z,15.70
2019-03-20T08:17:06.240Z,12.30
2019-03-20T08:18:06.198Z,11.50
2019-03-20T08:19:06.161Z,12.60
2019-03-20T08:20:06.119Z,12.20
2019-03-20T08:21:06.100Z,15.00
2019-03-20T08:22:06.032Z,12.40
2019-03-20T08:23:05.987Z,13.50
2019-03-20T08:24:05.965Z,12.50
2019-03-20T08:25:05.897Z,13.30
2019-03-20T08:26:05.870Z,13.20
2019-03-20T08:27:05.820Z,13.00
2019-03-20T08:28:05.787Z,11.70
2019-03-20T08:29:05.745Z,12.40
2019-03-20T08:30:05.740Z,11.80
2019-03-20T08:31:05.639Z,13.50
2019-03-20T08:32:05.620Z,12.10
2019-03-20T08:33:05.566Z,12.20
2019-03-20T08:34:05.518Z,12.70
2019-03-20T08:35:05.469Z,11.10
2019-03-20T08:36:05.477Z,13.60
2019-03-20T08:37:05.410Z,13.20
2019-03-20T08:38:05.347Z,11.50
2019-03-20T08:39:05.310Z,13.50
2019-03-20T08:40:05.268Z,12.80
2019-03-20T08:41:05.245Z,14.50
2019-03-20T08:42:05.212Z,13.40
2019-03-20T08:43:05.137Z,11.70
2019-03-20T08:44:05.095Z,13.90
2019-03-20T08:45:05.056Z,13.50
2019-03-20T08:46:05.010Z,12.40
2019-03-20T08:47:05.013Z,12.80
2019-03-20T08:48:04.954Z,13.00
2019-03-20T08:49:04.916Z,11.70
2019-03-20T08:50:04.845Z,10.70
2019-03-20T08:51:04.808Z,12.60
2019-03-20T08:52:04.765Z,10.30
2019-03-20T08:53:04.754Z,11.70
2019-03-20T08:54:04.698Z,9.60
2019-03-20T08:55:04.641Z,12.90
2019-03-20T08:56:04.593Z,10.40
2019-03-20T08:57:04.554Z,12.80
2019-03-20T08:58:04.506Z,10.60
2019-03-20T08:59:04.534Z,13.50
2019-03-20T09:00:04.430Z,12.40
2019-03-20T09:01:04.389Z,12.50
2019-03-20T09:02:04.352Z,13.90
2019-03-20T09:03:04.336Z,11.80
2019-03-20T09:04:04.264Z,12.50
2019-03-20T09:05:04.224Z,12.80
2019-03-20T09:06:04.185Z,10.90
2019-03-20T09:07:04.135Z,12.90
2019-03-20T09:08:04.116Z,11.50
2019-03-20T09:09:04.095Z,11.90
2019-03-20T09:10:04.015Z,12.80
2019-03-20T09:11:03.983Z,11.70
2019-03-20T09:12:03.946Z,12.60
2019-03-20T09:13:03.898Z,11.40
2019-03-20T09:14:03.947Z,10.90
2019-03-20T09:15:03.857Z,11.00
2019-03-20T09:16:03.770Z,9.90
2019-03-20T09:17:03.731Z,10.80
2019-03-20T09:18:03.691Z,12.10
2019-03-20T09:19:03.665Z,10.70
2019-03-20T09:20:03.643Z,12.30
2019-03-20T09:21:03.568Z,12.30
2019-03-20T09:22:03.544Z,11.30
2019-03-20T09:23:03.506Z,9.90
2019-03-20T09:24:03.456Z,10.70
2019-03-20T09:25:03.429Z,14.90
2019-03-20T09:26:03.402Z,11.30
2019-03-20T09:27:03.346Z,12.20
2019-03-20T09:28:03.297Z,11.60
2019-03-20T09:29:03.253Z,11.80
2019-03-20T09:30:03.252Z,12.00
2019-03-20T09:31:03.186Z,11.80
2019-03-20T09:32:03.143Z,12.00
2019-03-20T09:33:03.120Z,12.90
2019-03-20T09:34:03.116Z,10.40
2019-03-20T09:35:03.023Z,10.60
2019-03-20T09:36:03.014Z,11.20
2019-03-20T09:37:02.956Z,11.50
2019-03-20T09:38:02.907Z,13.60
2019-03-20T09:39:02.866Z,9.80
2019-03-20T09:40:02.836Z,12.60
2019-03-20T09:41:02.815Z,12.30
2019-03-20T09:42:02.837Z,12.00
2019-03-20T09:43:02.719Z,11.90
2019-03-20T09:44:02.682Z,11.00
2019-03-20T09:45:02.645Z,11.10
2019-03-20T09:46:02.629Z,12.10
2019-03-20T09:47:02.573Z,11.80
2019-03-20T09:48:02.515Z,11.80
2019-03-20T09:49:02.487Z,11.60
2019-03-20T09:50:02.497Z,12.40
2019-03-20T09:51:02.415Z,11.20
2019-03-20T09:52:02.394Z,13.50
2019-03-20T09:53:02.328Z,13.80
2019-03-20T09:54:02.293Z,13.40
2019-03-20T09:55:02.263Z,12.50
2019-03-20T09:56:02.291Z,12.50
2019-03-20T09:57:02.209Z,11.80
2019-03-20T09:58:11.158Z,12.90
2019-03-20T09:59:02.094Z,11.10
2019-03-20T10:00:02.064Z,10.20
2019-03-20T10:01:02.022Z,13.10
2019-03-20T10:02:02.941Z,11.90
2019-03-20T10:03:01.978Z,12.40
2019-03-20T10:04:01.914Z,12.80
2019-03-20T10:05:01.879Z,12.40
2019-03-20T10:06:01.853Z,15.30
2019-03-20T10:07:01.794Z,14.80
2019-03-20T10:08:01.844Z,12.90
2019-03-20T10:09:02.071Z,11.50
2019-03-20T10:10:01.685Z,12.20
2019-03-20T10:11:01.647Z,10.50
2019-03-20T10:12:01.600Z,13.80
2019-03-20T10:13:01.596Z,12.30
2019-03-20T10:14:01.527Z,10.50
2019-03-20T10:15:01.493Z,9.70
2019-03-20T10:16:01.464Z,12.40
2019-03-20T10:17:01.424Z,12.50
2019-03-20T10:18:01.381Z,10.70
2019-03-20T10:19:01.361Z,9.90
2019-03-20T10:20:01.302Z,12.30
2019-03-20T10:21:01.260Z,10.40
2019-03-20T10:22:01.222Z,12.20
2019-03-20T10:23:01.192Z,11.90
2019-03-20T10:24:01.181Z,11.30
2019-03-20T10:25:01.113Z,12.70
2019-03-20T10:26:01.075Z,13.00
2019-03-20T10:27:01.043Z,12.70
2019-03-20T10:28:00.999Z,12.70
2019-03-20T10:29:00.989Z,11.20
2019-03-20T10:30:00.926Z,11.50
2019-03-20T10:31:00.906Z,11.90
2019-03-20T10:32:00.843Z,11.70
2019-03-20T10:33:00.827Z,11.20
2019-03-20T10:34:00.787Z,11.60
2019-03-20T10:35:00.762Z,12.00
2019-03-20T10:36:00.699Z,10.50
2019-03-20T10:37:00.664Z,11.60
2019-03-20T10:38:00.629Z,9.70
2019-03-20T10:39:06.317Z,11.10
2019-03-20T10:40:00.567Z,13.20
2019-03-20T10:41:00.517Z,10.00
2019-03-20T10:42:00.530Z,10.70
2019-03-20T10:43:00.458Z,9.60
2019-03-20T10:44:00.399Z,10.70
2019-03-20T10:45:00.381Z,11.40
2019-03-20T10:46:00.346Z,8.90
2019-03-20T10:47:00.286Z,11.40
2019-03-20T10:48:00.254Z,11.10
2019-03-20T10:49:00.224Z,11.20
2019-03-20T10:50:00.405Z,10.90
2019-03-20T10:51:00.162Z,10.10
2019-03-20T10:52:00.102Z,8.50
2019-03-20T10:53:00.068Z,9.60
2019-03-20T10:54:00.028Z,9.10
2019-03-20T10:55:00.002Z,10.70
2019-03-20T10:56:00.010Z,10.30
2019-03-20T10:56:59.923Z,11.40
2019-03-20T10:57:59.889Z,9.50
2019-03-20T10:58:59.860Z,9.60
2019-03-20T10:59:59.822Z,9.20
2019-03-20T11:00:59.784Z,11.50
2019-03-20T11:02:00.881Z,10.80
2019-03-20T11:02:59.707Z,10.90
2019-03-20T11:03:59.671Z,12.30
2019-03-20T11:04:59.635Z,7.50
2019-03-20T11:05:59.602Z,11.70
2019-03-20T11:06:59.594Z,10.70
2019-03-20T11:07:59.538Z,7.60
2019-03-20T11:08:59.494Z,10.40
2019-03-20T11:09:59.472Z,9.70
2019-03-20T11:10:59.415Z,7.50
2019-03-20T11:11:59.404Z,9.50
2019-03-20T11:12:59.370Z,9.70
2019-03-20T11:13:59.311Z,8.50
2019-03-20T11:14:59.272Z,9.90
2019-03-20T11:15:59.240Z,11.10
2019-03-20T11:16:59.225Z,10.50
2019-03-20T11:17:59.179Z,7.80
2019-03-20T11:18:59.131Z,10.50
2019-03-20T11:19:59.089Z,10.20
2019-03-20T11:20:59.059Z,9.00
2019-03-20T11:21:59.023Z,9.60
2019-03-20T11:22:59.006Z,10.60
2019-03-20T11:23:58.941Z,8.80
2019-03-20T11:24:58.899Z,7.90
2019-03-20T11:26:00.016Z,10.20
2019-03-20T11:26:58.835Z,10.00
2019-03-20T11:27:58.801Z,9.20
2019-03-20T11:28:58.775Z,9.00
2019-03-20T11:29:58.720Z,9.40
2019-03-20T11:30:58.692Z,9.40
2019-03-20T11:31:58.655Z,8.80
2019-03-20T11:32:58.639Z,8.40
2019-03-20T11:33:58.602Z,9.10
2019-03-20T11:34:58.535Z,8.70
2019-03-20T11:35:58.504Z,9.30
2019-03-20T11:36:58.463Z,8.00
2019-03-20T11:37:58.428Z,8.00
2019-03-20T11:38:58.425Z,10.60
2019-03-20T11:39:58.364Z,10.70
2019-03-20T11:40:58.345Z,9.10
2019-03-20T11:41:58.289Z,9.80
2019-03-20T11:42:58.253Z,9.30
2019-03-20T11:43:58.233Z,8.80
2019-03-20T11:44:58.183Z,9.90
2019-03-20T11:45:58.160Z,9.00
2019-03-20T11:46:58.132Z,9.60
2019-03-20T11:47:58.069Z,8.20
2019-03-20T11:48:58.036Z,9.30
2019-03-20T11:49:58.023Z,10.60
2019-03-20T11:50:57.966Z,9.20
2019-03-20T11:51:57.942Z,10.90
2019-03-20T11:52:57.920Z,10.10
2019-03-20T11:53:57.857Z,8.60
2019-03-20T11:54:57.847Z,9.40
2019-03-20T11:55:57.776Z,12.70
2019-03-20T11:56:57.745Z,10.00
2019-03-20T11:57:57.704Z,9.60
2019-03-20T11:59:07.135Z,8.80
2019-03-20T11:59:57.658Z,8.90
2019-03-20T12:01:06.195Z,9.30
2019-03-20T12:02:06.699Z,9.00
2019-03-20T12:03:06.258Z,11.90
2019-03-20T12:03:57.499Z,7.90
2019-03-20T12:05:06.285Z,8.80
2019-03-20T12:06:06.812Z,7.90
2019-03-20T12:07:06.831Z,8.30
2019-03-20T12:08:06.379Z,8.90
2019-03-20T12:08:57.309Z,6.80
2019-03-20T12:09:58.881Z,8.60
2019-03-20T12:10:58.615Z,8.60
2019-03-20T12:11:57.196Z,7.30
2019-03-20T12:12:57.162Z,10.00
2019-03-20T12:13:57.122Z,8.30
2019-03-20T12:15:06.413Z,7.80
2019-03-20T12:15:57.074Z,6.90
2019-03-20T12:16:57.019Z,7.20
2019-03-20T12:17:57.008Z,8.50
2019-03-20T12:18:56.945Z,6.50
2019-03-20T12:19:56.909Z,9.60
2019-03-20T12:20:56.896Z,8.10
2019-03-20T12:21:56.830Z,8.90
2019-03-20T12:22:56.795Z,7.60
2019-03-20T12:23:56.831Z,9.80
2019-03-20T12:24:56.732Z,7.20
2019-03-20T12:25:56.695Z,7.60
2019-03-20T12:26:56.685Z,7.00
2019-03-20T12:27:56.626Z,5.90
2019-03-20T12:28:59.122Z,7.20
2019-03-20T12:29:56.548Z,7.00
2019-03-20T12:30:56.521Z,5.80
2019-03-20T12:31:56.513Z,8.40
2019-03-20T12:32:56.444Z,6.70
2019-03-20T12:33:56.411Z,5.90
2019-03-20T12:34:56.371Z,7.30
2019-03-20T12:35:56.336Z,5.30
2019-03-20T12:36:56.718Z,6.00
2019-03-20T12:37:56.298Z,7.80
2019-03-20T12:38:56.238Z,6.60
2019-03-20T12:39:56.204Z,5.30
2019-03-20T12:40:56.161Z,6.60
2019-03-20T12:41:56.126Z,5.80
2019-03-20T12:42:56.120Z,6.70
2019-03-20T12:43:56.053Z,5.80
2019-03-20T12:44:56.023Z,6.30
2019-03-20T12:45:55.987Z,5.90
2019-03-20T12:46:55.947Z,6.00
2019-03-20T12:47:55.934Z,4.40
2019-03-20T12:48:55.887Z,4.80
2019-03-20T12:49:55.862Z,3.60
2019-03-20T12:50:55.810Z,3.30
2019-03-20T12:51:55.780Z,4.40
2019-03-20T12:52:55.755Z,3.40
2019-03-20T12:53:55.728Z,3.50
2019-03-20T12:54:55.663Z,5.10
2019-03-20T12:55:55.626Z,4.00